createdAt,value
2022-12-20T00:00:57.879Z,33.05
2022-12-20T00:03:24.523Z,27.67
2022-12-20T00:05:51.150Z,27.60
2022-12-20T00:08:17.914Z,31.05
2022-12-20T00:10:46.025Z,27.40
2022-12-20T00:13:13.637Z,28.50
2022-12-20T00:15:40.362Z,28.52
2022-12-20T00:18:07.454Z,29.60
2022-12-20T00:20:34.201Z,32.50
2022-12-20T00:23:01.254Z,26.30
2022-12-20T00:25:27.975Z,26.60
2022-12-20T00:27:54.564Z,25.83
2022-12-20T00:30:21.263Z,27.00
2022-12-20T00:32:47.847Z,27.98
2022-12-20T00:35:14.609Z,27.38
2022-12-20T00:37:41.255Z,26.42
2022-12-20T00:40:08.898Z,29.00
2022-12-20T00:42:35.604Z,28.65
2022-12-20T00:45:03.056Z,31.95
2022-12-20T00:47:29.611Z,32.58
2022-12-20T00:49:56.200Z,33.33
2022-12-20T00:52:22.823Z,34.85
2022-12-20T00:54:49.406Z,32.60
2022-12-20T00:57:16.031Z,33.85
2022-12-20T00:59:42.608Z,35.45
2022-12-20T01:02:09.387Z,38.58
2022-12-20T01:04:36.114Z,35.13
2022-12-20T01:07:02.793Z,39.47
2022-12-20T01:09:29.500Z,35.35
2022-12-20T01:11:56.085Z,38.45
2022-12-20T01:14:22.763Z,39.65
2022-12-20T01:16:49.510Z,35.38
2022-12-20T01:19:18.255Z,35.67
2022-12-20T01:21:45.168Z,33.58
2022-12-20T01:24:14.483Z,33.00
2022-12-20T01:26:41.713Z,34.30
2022-12-20T01:29:08.884Z,34.83
2022-12-20T01:31:35.702Z,34.33
2022-12-20T01:34:03.733Z,37.20
2022-12-20T01:36:33.942Z,33.88
2022-12-20T01:39:06.611Z,31.88
2022-12-20T01:41:34.726Z,33.25
2022-12-20T01:44:02.729Z,35.60
2022-12-20T01:46:32.329Z,34.88
2022-12-20T01:49:14.076Z,34.95
2022-12-20T01:51:45.308Z,36.28
2022-12-20T01:54:16.827Z,34.90
2022-12-20T01:56:47.727Z,32.95
2022-12-20T01:59:14.865Z,34.85
2022-12-20T02:01:43.538Z,35.53
2022-12-20T02:04:10.397Z,36.78
2022-12-20T02:06:36.996Z,35.63
2022-12-20T02:09:05.542Z,36.90
2022-12-20T02:11:41.400Z,36.08
2022-12-20T02:14:35.993Z,38.20
2022-12-20T02:17:02.574Z,38.17
2022-12-20T02:19:40.950Z,36.20
2022-12-20T02:22:39.004Z,37.72
2022-12-20T02:26:04.741Z,34.85
2022-12-20T02:28:52.812Z,34.38
2022-12-20T02:31:27.481Z,33.00
2022-12-20T02:33:57.747Z,31.58
2022-12-20T02:36:25.583Z,33.17
2022-12-20T02:38:52.412Z,35.15
2022-12-20T02:41:27.189Z,32.50
2022-12-20T02:44:17.616Z,32.58
2022-12-20T02:46:45.768Z,32.08
2022-12-20T02:49:16.858Z,32.38
2022-12-20T02:51:47.344Z,31.40
2022-12-20T02:54:16.031Z,31.20
2022-12-20T02:56:50.350Z,30.95
2022-12-20T02:59:32.475Z,33.13
2022-12-20T03:01:59.627Z,31.77
2022-12-20T03:04:32.355Z,31.98
2022-12-20T03:07:02.439Z,30.52
2022-12-20T03:09:31.553Z,28.25
2022-12-20T03:11:58.508Z,31.02
2022-12-20T03:14:25.125Z,30.23
2022-12-20T03:16:52.336Z,31.00
2022-12-20T03:19:19.809Z,32.63
2022-12-20T03:21:46.755Z,30.05
2022-12-20T03:24:14.039Z,30.55
2022-12-20T03:26:41.395Z,28.40
2022-12-20T03:29:08.277Z,28.33
2022-12-20T03:31:35.810Z,31.80
2022-12-20T03:34:02.832Z,30.13
2022-12-20T03:36:29.612Z,30.95
2022-12-20T03:38:56.492Z,27.83
2022-12-20T03:41:24.243Z,27.95
2022-12-20T03:43:52.978Z,30.30
2022-12-20T03:46:19.671Z,28.23
2022-12-20T03:48:46.368Z,28.33
2022-12-20T03:51:13.060Z,29.35
2022-12-20T03:53:39.784Z,30.45
2022-12-20T03:56:06.606Z,29.60
2022-12-20T03:58:33.217Z,33.45
2022-12-20T04:00:59.806Z,30.08
2022-12-20T04:03:26.487Z,34.13
2022-12-20T04:05:53.187Z,28.90
2022-12-20T04:08:19.807Z,31.00
2022-12-20T04:11:04.534Z,34.88
2022-12-20T04:13:31.140Z,34.00
2022-12-20T04:16:00.611Z,35.72
2022-12-20T04:18:27.701Z,31.33
2022-12-20T04:20:54.972Z,33.35
2022-12-20T04:23:21.697Z,34.85
2022-12-20T04:25:48.279Z,31.20
2022-12-20T04:28:14.892Z,33.38
2022-12-20T04:30:41.486Z,33.92
2022-12-20T04:33:08.121Z,31.75
2022-12-20T04:35:34.841Z,34.78
2022-12-20T04:38:01.533Z,30.30
2022-12-20T04:40:28.129Z,32.38
2022-12-20T04:42:54.787Z,35.80
2022-12-20T04:45:21.434Z,32.72
2022-12-20T04:47:48.079Z,30.27
2022-12-20T04:50:14.869Z,30.77
2022-12-20T04:52:59.933Z,34.83
2022-12-20T04:55:26.580Z,32.05
2022-12-20T04:57:53.173Z,32.63
2022-12-20T05:00:20.350Z,35.70
2022-12-20T05:02:47.416Z,33.13
2022-12-20T05:05:14.238Z,32.08
2022-12-20T05:07:40.838Z,33.33
2022-12-20T05:10:07.922Z,31.27
2022-12-20T05:12:34.543Z,30.45
2022-12-20T05:15:01.127Z,31.27
2022-12-20T05:17:27.738Z,33.13
2022-12-20T05:19:54.340Z,29.33
2022-12-20T05:22:39.207Z,33.92
2022-12-20T05:25:24.320Z,31.05
2022-12-20T05:27:50.924Z,32.17
2022-12-20T05:30:17.622Z,31.73
2022-12-20T05:32:44.217Z,31.55
2022-12-20T05:35:10.827Z,31.52
2022-12-20T05:37:37.518Z,31.73
2022-12-20T05:40:04.977Z,33.67
2022-12-20T05:42:31.574Z,30.38
2022-12-20T05:44:58.220Z,30.70
2022-12-20T05:47:24.935Z,33.47
2022-12-20T05:49:51.570Z,36.10
2022-12-20T05:52:18.241Z,39.35
2022-12-20T05:54:44.859Z,33.70
2022-12-20T05:57:11.626Z,30.45
2022-12-20T05:59:38.511Z,32.28
2022-12-20T06:02:05.238Z,30.48
2022-12-20T06:04:32.778Z,30.88
2022-12-20T06:07:02.431Z,35.22
2022-12-20T06:09:30.188Z,33.88
2022-12-20T06:11:56.970Z,34.50
2022-12-20T06:14:23.594Z,35.67
2022-12-20T06:16:50.237Z,37.25
2022-12-20T06:19:21.398Z,38.20
2022-12-20T06:21:48.390Z,35.42
2022-12-20T06:24:15.619Z,30.10
2022-12-20T06:26:42.419Z,32.85
2022-12-20T06:29:14.029Z,32.13
2022-12-20T06:31:41.175Z,30.17
2022-12-20T06:34:08.016Z,32.53
2022-12-20T06:36:34.767Z,31.17
2022-12-20T06:39:06.131Z,30.17
2022-12-20T06:41:36.674Z,28.73
2022-12-20T06:44:03.683Z,28.70
2022-12-20T06:46:30.322Z,29.55
2022-12-20T06:48:57.446Z,30.58
2022-12-20T06:51:24.419Z,28.30
2022-12-20T06:53:51.339Z,32.70
2022-12-20T06:56:18.089Z,29.48
2022-12-20T06:58:46.619Z,29.58
2022-12-20T07:01:13.620Z,31.98
2022-12-20T07:03:40.604Z,30.27
2022-12-20T07:06:07.398Z,30.05
2022-12-20T07:08:33.996Z,31.85
2022-12-20T07:11:07.951Z,32.00
2022-12-20T07:13:35.042Z,31.90
2022-12-20T07:16:03.085Z,29.42
2022-12-20T07:18:30.213Z,32.65
2022-12-20T07:21:00.985Z,33.50
2022-12-20T07:23:27.823Z,32.03
2022-12-20T07:25:59.476Z,31.67
2022-12-20T07:28:27.587Z,30.52
2022-12-20T07:30:54.703Z,29.58
2022-12-20T07:33:21.485Z,29.85
2022-12-20T07:35:54.043Z,29.88
2022-12-20T07:40:47.690Z,28.00
2022-12-20T07:43:14.304Z,28.75
2022-12-20T07:45:41.040Z,29.35
2022-12-20T07:48:12.578Z,29.75
2022-12-20T07:50:42.165Z,30.48
2022-12-20T07:53:10.522Z,29.63
2022-12-20T07:55:40.556Z,30.08
2022-12-20T07:58:09.661Z,28.08
2022-12-20T08:00:37.539Z,30.63
2022-12-20T08:03:09.023Z,31.92
2022-12-20T08:05:38.929Z,28.55
2022-12-20T08:08:06.235Z,33.00
2022-12-20T08:10:33.184Z,31.15
2022-12-20T08:13:00.277Z,31.23
2022-12-20T08:15:28.986Z,30.40
2022-12-20T08:17:55.637Z,30.70
2022-12-20T08:20:22.663Z,31.08
2022-12-20T08:22:49.240Z,33.17
2022-12-20T08:25:15.953Z,32.95
2022-12-20T08:27:42.621Z,33.45
2022-12-20T08:30:10.862Z,32.92
2022-12-20T08:32:38.322Z,30.38
2022-12-20T08:35:06.008Z,29.88
2022-12-20T08:37:32.757Z,30.25
2022-12-20T08:40:00.876Z,31.33
2022-12-20T08:42:28.565Z,31.83
2022-12-20T08:44:55.798Z,32.10
2022-12-20T08:47:22.388Z,32.30
2022-12-20T08:49:48.996Z,30.33
2022-12-20T08:52:15.679Z,34.63
2022-12-20T08:54:42.426Z,32.33
2022-12-20T08:57:09.173Z,29.77
2022-12-20T08:59:35.858Z,36.13
2022-12-20T09:02:02.612Z,34.03
2022-12-20T09:04:29.391Z,34.65
2022-12-20T09:06:55.981Z,29.98
2022-12-20T09:09:22.588Z,33.97
2022-12-20T09:11:49.194Z,31.15
2022-12-20T09:14:15.767Z,33.53
2022-12-20T09:16:42.398Z,30.92
2022-12-20T09:19:12.948Z,33.50
2022-12-20T09:21:39.559Z,33.05
2022-12-20T09:24:06.611Z,32.38
2022-12-20T09:26:35.283Z,31.58
2022-12-20T09:29:02.407Z,32.20
2022-12-20T09:31:29.123Z,32.55
2022-12-20T09:33:58.095Z,34.22
2022-12-20T09:36:26.369Z,34.60
2022-12-20T09:38:54.766Z,33.95
2022-12-20T09:41:41.684Z,32.83
2022-12-20T09:44:25.700Z,33.83
2022-12-20T09:47:03.498Z,32.38
2022-12-20T09:49:36.435Z,32.03
2022-12-20T09:52:18.276Z,31.20
2022-12-20T09:54:56.031Z,33.78
2022-12-20T09:57:28.759Z,32.58
2022-12-20T09:59:57.708Z,29.35
2022-12-20T10:02:56.604Z,27.50
2022-12-20T10:05:16.995Z,29.48
2022-12-20T10:07:59.577Z,30.10
2022-12-20T10:10:41.466Z,27.57
2022-12-20T10:13:18.362Z,28.98
2022-12-20T10:15:54.819Z,30.25
2022-12-20T10:18:45.502Z,30.65
2022-12-20T10:21:34.714Z,31.92
2022-12-20T10:24:04.919Z,32.58
2022-12-20T10:26:33.832Z,30.73
2022-12-20T10:29:00.422Z,30.75
2022-12-20T10:31:27.545Z,31.55
2022-12-20T10:33:54.271Z,28.95
2022-12-20T10:36:23.198Z,28.33
2022-12-20T10:38:52.555Z,31.98
2022-12-20T10:41:28.377Z,30.98
2022-12-20T10:44:01.316Z,30.30
2022-12-20T10:46:43.552Z,34.47
2022-12-20T10:49:26.888Z,32.25
2022-12-20T10:51:55.759Z,31.48
2022-12-20T10:54:30.195Z,29.30
2022-12-20T10:57:01.013Z,29.60
2022-12-20T10:59:36.184Z,30.83
2022-12-20T11:02:23.717Z,31.75
2022-12-20T11:05:10.544Z,32.00
2022-12-20T11:08:33.475Z,33.70
2022-12-20T11:10:39.995Z,31.33
2022-12-20T11:13:06.854Z,31.98
2022-12-20T11:15:37.129Z,31.00
2022-12-20T11:18:13.761Z,30.85
2022-12-20T11:20:43.089Z,31.25
2022-12-20T11:23:18.848Z,31.40
2022-12-20T11:26:04.735Z,29.30
2022-12-20T11:28:49.948Z,32.17
2022-12-20T11:31:50.091Z,30.90
2022-12-20T11:34:32.112Z,33.65
2022-12-20T11:37:24.147Z,31.98
2022-12-20T11:39:56.544Z,32.15
2022-12-20T11:43:00.801Z,34.45
2022-12-20T11:45:45.733Z,30.98
2022-12-20T11:48:22.659Z,31.02
2022-12-20T11:51:27.104Z,31.70
2022-12-20T11:54:09.779Z,29.77
2022-12-20T11:56:44.777Z,29.57
2022-12-20T11:59:25.008Z,32.13
2022-12-20T12:02:05.776Z,30.90
2022-12-20T12:04:39.057Z,31.00
2022-12-20T12:10:01.622Z,32.15
2022-12-20T12:12:28.251Z,34.22
2022-12-20T12:15:00.960Z,33.08
2022-12-20T12:17:33.724Z,32.63
2022-12-20T12:20:15.790Z,32.08
2022-12-20T12:22:44.503Z,31.25
2022-12-20T12:25:16.519Z,32.33
2022-12-20T12:27:43.507Z,34.55
2022-12-20T12:30:15.587Z,32.83
2022-12-20T12:33:02.464Z,33.88
2022-12-20T12:36:15.317Z,34.35
2022-12-20T12:38:41.847Z,33.47
2022-12-20T12:41:49.129Z,36.03
2022-12-20T12:44:46.271Z,33.30
2022-12-20T12:47:25.070Z,32.50
2022-12-20T12:49:55.064Z,32.40
2022-12-20T12:52:41.347Z,33.17
2022-12-20T12:55:41.696Z,33.28
2022-12-20T12:58:23.639Z,31.85
2022-12-20T13:01:02.526Z,35.60
2022-12-20T13:03:42.052Z,34.42
2022-12-20T13:06:23.721Z,31.52
2022-12-20T13:09:22.550Z,31.65
2022-12-20T13:11:57.380Z,31.75
2022-12-20T13:14:29.378Z,30.67
2022-12-20T13:17:14.714Z,34.50
2022-12-20T13:19:53.376Z,33.33
2022-12-20T13:22:27.079Z,32.20
2022-12-20T13:25:04.275Z,34.17
2022-12-20T13:27:34.647Z,38.55
2022-12-20T13:30:01.269Z,32.42
2022-12-20T13:32:49.428Z,32.47
2022-12-20T13:35:24.948Z,33.22
2022-12-20T13:38:05.943Z,32.00
2022-12-20T13:40:41.079Z,31.00
2022-12-20T13:43:23.908Z,31.55
2022-12-20T13:46:02.101Z,31.77
2022-12-20T13:48:36.256Z,30.35
2022-12-20T13:51:03.139Z,31.08
2022-12-20T13:53:31.334Z,30.42
2022-12-20T13:55:57.995Z,31.13
2022-12-20T13:58:37.155Z,28.83
2022-12-20T14:01:06.827Z,30.23
2022-12-20T14:03:45.777Z,31.23
2022-12-20T14:06:14.624Z,30.52
2022-12-20T14:08:46.439Z,30.15
2022-12-20T14:11:13.007Z,31.40
2022-12-20T14:13:40.030Z,29.17
2022-12-20T14:16:20.169Z,28.60
2022-12-20T14:19:04.722Z,28.20
2022-12-20T14:21:35.519Z,28.85
2022-12-20T14:24:03.471Z,28.27
2022-12-20T14:26:44.768Z,27.45
2022-12-20T14:29:16.030Z,27.90
2022-12-20T14:31:48.537Z,30.92
2022-12-20T14:34:29.301Z,29.63
2022-12-20T14:37:24.122Z,27.88
2022-12-20T14:40:22.989Z,27.98
2022-12-20T14:42:49.737Z,29.98
2022-12-20T14:45:22.467Z,27.25
2022-12-20T14:48:06.735Z,30.63
2022-12-20T14:50:34.763Z,30.63
2022-12-20T14:53:02.162Z,34.55
2022-12-20T14:55:44.986Z,28.42
2022-12-20T14:58:29.000Z,30.85
2022-12-20T15:00:58.292Z,31.50
2022-12-20T15:03:25.782Z,30.02
2022-12-20T15:05:57.688Z,34.15
2022-12-20T15:08:35.079Z,34.75
2022-12-20T15:11:10.810Z,33.92
2022-12-20T15:13:55.641Z,31.67
2022-12-20T15:16:24.712Z,30.92
2022-12-20T15:19:02.279Z,29.23
2022-12-20T15:21:37.425Z,28.30
2022-12-20T15:24:09.737Z,31.17
2022-12-20T15:26:36.748Z,30.58
2022-12-20T15:29:03.567Z,30.15
2022-12-20T15:31:33.759Z,31.15
2022-12-20T15:34:04.511Z,31.92
2022-12-20T15:36:31.833Z,29.30
2022-12-20T15:39:15.391Z,31.30
2022-12-20T15:41:47.236Z,27.27
2022-12-20T15:44:20.828Z,28.92
2022-12-20T15:46:48.015Z,29.65
2022-12-20T15:49:16.329Z,29.30
2022-12-20T15:51:45.043Z,32.38
2022-12-20T15:54:35.835Z,29.05
2022-12-20T15:57:07.428Z,31.05
2022-12-20T15:59:59.808Z,29.58
2022-12-20T16:02:20.934Z,30.05
2022-12-20T16:04:47.694Z,33.90
2022-12-20T16:07:14.437Z,32.13
2022-12-20T16:09:41.055Z,31.25
2022-12-20T16:12:22.670Z,31.38
2022-12-20T16:14:49.427Z,31.83
2022-12-20T16:17:16.645Z,28.30
2022-12-20T16:19:44.216Z,32.00
2022-12-20T16:22:19.995Z,33.72
2022-12-20T16:24:47.990Z,32.35
2022-12-20T16:27:14.649Z,31.95
2022-12-20T16:29:41.657Z,32.38
2022-12-20T16:32:18.459Z,30.95
2022-12-20T16:34:45.664Z,31.40
2022-12-20T16:37:12.516Z,32.35
2022-12-20T16:39:39.718Z,30.63
2022-12-20T16:42:18.104Z,33.42
2022-12-20T16:44:46.098Z,31.42
2022-12-20T16:47:14.447Z,32.00
2022-12-20T16:49:47.317Z,31.75
2022-12-20T16:52:18.375Z,32.50
2022-12-20T16:54:45.027Z,30.80
2022-12-20T16:57:11.609Z,29.27
2022-12-20T16:59:38.543Z,30.38
2022-12-20T17:02:28.352Z,34.17
2022-12-20T17:04:55.420Z,35.45
2022-12-20T17:07:22.116Z,30.95
2022-12-20T17:09:48.805Z,36.47
2022-12-20T17:12:21.154Z,36.85
2022-12-20T17:14:48.941Z,32.47
2022-12-20T17:17:15.739Z,31.85
2022-12-20T17:19:42.405Z,34.97
2022-12-20T17:22:24.174Z,34.88
2022-12-20T17:24:52.166Z,33.28
2022-12-20T17:27:19.078Z,32.08
2022-12-20T17:29:45.931Z,31.77
2022-12-20T17:32:23.183Z,27.90
2022-12-20T17:34:50.246Z,31.90
2022-12-20T17:37:17.944Z,31.08
2022-12-20T17:39:44.681Z,28.73
2022-12-20T17:42:14.080Z,27.40
2022-12-20T17:44:40.706Z,30.00
2022-12-20T17:47:07.375Z,27.23
2022-12-20T17:49:33.984Z,29.42
2022-12-20T17:52:00.600Z,27.98
2022-12-20T17:54:32.075Z,26.60
2022-12-20T17:57:03.652Z,27.55
2022-12-20T17:59:30.690Z,27.77
2022-12-20T18:01:57.701Z,25.38
2022-12-20T18:04:24.650Z,26.85
2022-12-20T18:06:52.333Z,26.75
2022-12-20T18:09:21.646Z,26.10
2022-12-20T18:11:48.652Z,24.38
2022-12-20T18:14:15.892Z,26.67
2022-12-20T18:16:42.621Z,27.90
2022-12-20T18:19:15.748Z,28.52
2022-12-20T18:24:13.688Z,28.70
2022-12-20T18:26:41.037Z,28.67
2022-12-20T18:29:08.098Z,29.42
2022-12-20T18:31:35.250Z,28.92
2022-12-20T18:34:02.621Z,27.60
2022-12-20T18:36:31.680Z,25.95
2022-12-20T18:39:00.902Z,26.23
2022-12-20T18:41:29.896Z,26.38
2022-12-20T18:43:59.098Z,25.67
2022-12-20T18:46:25.830Z,26.05
2022-12-20T18:48:54.623Z,26.08
2022-12-20T18:51:24.692Z,26.65
2022-12-20T18:53:54.616Z,25.40
2022-12-20T18:56:25.230Z,28.42
2022-12-20T18:58:52.552Z,26.35
2022-12-20T19:01:22.287Z,27.75
2022-12-20T19:03:50.384Z,26.40
2022-12-20T19:06:17.322Z,26.50
2022-12-20T19:08:43.993Z,29.50
2022-12-20T19:11:12.939Z,31.55
2022-12-20T19:13:40.148Z,28.08
2022-12-20T19:16:15.689Z,27.60
2022-12-20T19:18:43.594Z,27.48
2022-12-20T19:21:13.685Z,28.00
2022-12-20T19:23:41.994Z,27.42
2022-12-20T19:26:12.138Z,30.42
2022-12-20T19:28:40.084Z,28.77
2022-12-20T19:31:19.291Z,27.15
2022-12-20T19:33:48.222Z,27.88
2022-12-20T19:36:18.251Z,29.42
2022-12-20T19:38:47.313Z,28.40
2022-12-20T19:41:14.700Z,31.73
2022-12-20T19:43:42.114Z,29.50
2022-12-20T19:46:09.913Z,26.75
2022-12-20T19:48:37.413Z,30.15
2022-12-20T19:51:10.252Z,28.30
2022-12-20T19:53:37.624Z,29.73
2022-12-20T19:56:04.633Z,28.50
2022-12-20T19:58:31.260Z,30.63
2022-12-20T20:00:57.908Z,32.85
2022-12-20T20:03:24.706Z,32.55
2022-12-20T20:05:52.723Z,31.20
2022-12-20T20:08:19.549Z,29.90
2022-12-20T20:10:48.640Z,34.08
2022-12-20T20:13:15.403Z,30.92
2022-12-20T20:15:42.142Z,33.72
2022-12-20T20:18:09.153Z,34.92
2022-12-20T20:20:40.422Z,37.17
2022-12-20T20:23:07.057Z,31.40
2022-12-20T20:25:35.473Z,30.63
2022-12-20T20:28:03.227Z,32.28
2022-12-20T20:30:29.926Z,29.15
2022-12-20T20:32:56.598Z,30.52
2022-12-20T20:35:23.269Z,30.25
2022-12-20T20:37:49.871Z,30.17
2022-12-20T20:40:16.555Z,30.55
2022-12-20T20:42:43.156Z,30.98
2022-12-20T20:45:10.314Z,29.05
2022-12-20T20:47:36.911Z,32.92
2022-12-20T20:50:04.067Z,29.95
2022-12-20T20:52:30.685Z,27.73
2022-12-20T20:54:57.264Z,30.67
2022-12-20T20:57:23.864Z,29.55
2022-12-20T20:59:50.442Z,32.17
2022-12-20T21:02:17.253Z,28.73
2022-12-20T21:04:53.564Z,27.65
2022-12-20T21:07:30.501Z,32.55
2022-12-20T21:09:57.241Z,29.35
2022-12-20T21:12:23.892Z,29.25
2022-12-20T21:15:21.100Z,28.23
2022-12-20T21:17:37.097Z,29.33
2022-12-20T21:20:04.037Z,24.98
2022-12-20T21:22:30.861Z,20.38
2022-12-20T21:24:57.796Z,25.30
2022-12-20T21:27:24.612Z,25.60
2022-12-20T21:29:51.220Z,26.45
2022-12-20T21:32:18.089Z,26.70
2022-12-20T21:34:44.694Z,27.70
2022-12-20T21:37:11.273Z,26.00
2022-12-20T21:39:37.876Z,26.70
2022-12-20T21:42:04.496Z,29.77
2022-12-20T21:44:31.112Z,26.92
2022-12-20T21:46:57.789Z,27.83
2022-12-20T21:49:24.455Z,27.80
2022-12-20T21:51:51.088Z,26.55
2022-12-20T21:54:17.676Z,25.55
2022-12-20T21:56:44.326Z,28.05
2022-12-20T21:59:13.250Z,26.02
2022-12-20T22:01:40.161Z,30.65
2022-12-20T22:04:07.450Z,28.08
2022-12-20T22:06:34.965Z,26.90
2022-12-20T22:09:02.666Z,27.33
2022-12-20T22:11:29.271Z,30.27
2022-12-20T22:13:57.330Z,31.05
2022-12-20T22:16:26.483Z,29.17
2022-12-20T22:18:55.544Z,30.77
2022-12-20T22:21:26.096Z,29.33
2022-12-20T22:23:55.102Z,31.92
2022-12-20T22:26:23.925Z,31.13
2022-12-20T22:28:52.931Z,30.50
2022-12-20T22:31:19.908Z,29.50
2022-12-20T22:33:47.112Z,30.63
2022-12-20T22:36:15.433Z,29.98
2022-12-20T22:38:43.432Z,30.00
2022-12-20T22:41:11.289Z,31.08
2022-12-20T22:43:38.703Z,32.92
2022-12-20T22:46:05.606Z,34.35
2022-12-20T22:48:32.355Z,34.17
2022-12-20T22:51:04.395Z,33.45
2022-12-20T22:53:34.304Z,32.45
2022-12-20T22:56:01.648Z,27.80
2022-12-20T22:58:29.233Z,31.92
2022-12-20T23:01:00.769Z,29.90
2022-12-20T23:03:28.941Z,30.83
2022-12-20T23:05:58.325Z,28.92
2022-12-20T23:08:27.983Z,28.20
2022-12-20T23:11:13.261Z,32.45
2022-12-20T23:13:58.902Z,34.22
2022-12-20T23:16:26.102Z,30.73
2022-12-20T23:19:01.179Z,25.73
2022-12-20T23:21:48.223Z,29.40
2022-12-20T23:24:15.440Z,25.67
2022-12-20T23:26:42.843Z,28.38
2022-12-20T23:29:10.374Z,28.88
2022-12-20T23:31:37.158Z,25.60
2022-12-20T23:34:04.663Z,25.63
2022-12-20T23:36:33.322Z,28.83
2022-12-20T23:39:00.441Z,27.80
2022-12-20T23:41:27.515Z,31.25
2022-12-20T23:43:54.272Z,25.92
2022-12-20T23:46:21.995Z,28.25
2022-12-20T23:48:51.064Z,29.67
2022-12-20T23:51:18.323Z,29.65
2022-12-20T23:53:45.120Z,30.73
2022-12-20T23:56:17.702Z,32.17
2022-12-20T23:58:46.091Z,30.77
